Time;durP1;ratioP1;P1;durP2;ratioP2;P2;SDS_P1;SDS_P2;PMS_P1;PMS_P2;Temp;Humidity;BMP_temperature;BMP_pressure;BME280_temperature;BME280_humidity;BME280_pressure;Samples;Min_cycle;Max_cycle;Signal;HPM_P1;HPM_P2
2023/04/04 00:01:13;;;;;;;1.10;1.00;;;20.10;72.70;;;;;;4993701;28;20447;-86
2023/04/04 00:03:40;;;;;;;1.50;1.10;;;20.10;72.70;;;;;;4993710;28;20475;-86
2023/04/04 00:06:08;;;;;;;1.23;0.90;;;20.10;72.70;;;;;;4993563;28;20523;-90
2023/04/04 00:08:35;;;;;;;1.40;1.20;;;20.20;73.00;;;;;;4993635;28;20450;-86
2023/04/04 00:11:05;;;;;;;1.27;1.17;;;20.10;73.60;;;;;;4993566;28;20454;-86
2023/04/04 00:13:32;;;;;;;1.20;1.10;;;20.00;72.70;;;;;;4993307;28;20533;-89
2023/04/04 00:15:58;;;;;;;1.70;1.23;;;20.10;72.80;;;;;;4993849;28;20451;-86
2023/04/04 00:18:25;;;;;;;1.67;1.10;;;20.10;72.70;;;;;;4993727;28;20447;-88
2023/04/04 00:20:52;;;;;;;1.60;1.40;;;20.00;72.60;;;;;;4993581;28;20554;-85
2023/04/04 00:23:20;;;;;;;1.20;1.00;;;20.00;72.60;;;;;;4993552;28;20440;-88
2023/04/04 00:25:50;;;;;;;1.60;1.27;;;20.00;72.60;;;;;;4993447;28;20838;-93
2023/04/04 00:28:17;;;;;;;1.20;1.00;;;20.00;72.50;;;;;;4993734;28;20522;-86
2023/04/04 00:30:44;;;;;;;1.57;1.33;;;20.00;72.40;;;;;;4993654;28;20447;-85
2023/04/04 00:33:10;;;;;;;2.50;1.20;;;20.00;72.40;;;;;;4995341;28;20552;-86
2023/04/04 00:35:37;;;;;;;1.77;1.33;;;20.00;72.30;;;;;;4997022;28;20451;-91
2023/04/04 00:38:04;;;;;;;2.40;1.33;;;20.10;72.50;;;;;;4996870;28;20455;-86
2023/04/04 00:40:32;;;;;;;2.53;1.80;;;20.10;72.50;;;;;;4996872;28;20440;-92
2023/04/04 00:43:00;;;;;;;1.30;1.20;;;20.10;72.60;;;;;;4996746;28;20448;-92
2023/04/04 00:45:27;;;;;;;1.60;1.10;;;20.00;72.30;;;;;;4996732;28;20511;-94
2023/04/04 00:47:55;;;;;;;1.23;1.10;;;20.00;72.50;;;;;;4997127;28;20470;-93
2023/04/04 00:50:22;;;;;;;1.20;1.00;;;20.00;72.40;;;;;;4996978;28;20440;-88
2023/04/04 00:52:49;;;;;;;1.40;1.23;;;20.00;72.30;;;;;;4996698;28;20794;-93
2023/04/04 00:55:16;;;;;;;1.30;1.00;;;20.00;72.30;;;;;;4996709;28;20444;-94
2023/04/04 00:57:44;;;;;;;1.40;1.00;;;20.00;72.30;;;;;;4996333;28;20994;-92
2023/04/04 01:00:14;;;;;;;1.63;1.50;;;20.00;72.40;;;;;;4996554;28;20479;-93
2023/04/04 01:02:40;;;;;;;1.40;1.10;;;20.00;72.50;;;;;;4996608;28;20530;-92
2023/04/04 01:05:08;;;;;;;5.80;1.47;;;20.00;72.30;;;;;;4996545;28;20444;-92
2023/04/04 01:07:36;;;;;;;1.60;1.23;;;20.00;72.40;;;;;;4996327;28;20853;-92
2023/04/04 01:10:03;;;;;;;1.30;1.13;;;20.00;72.40;;;;;;4996282;28;20779;-86
2023/04/04 01:12:31;;;;;;;1.60;1.10;;;20.00;72.40;;;;;;4996540;28;20448;-86
2023/04/04 01:14:59;;;;;;;1.30;1.20;;;20.00;72.50;;;;;;4996285;28;20447;-87
2023/04/04 01:17:26;;;;;;;1.40;1.10;;;20.00;72.50;;;;;;4996274;28;20444;-92
2023/04/04 01:20:00;;;;;;;1.20;0.90;;;20.00;72.40;;;;;;4996365;28;20451;-85
2023/04/04 01:22:28;;;;;;;1.60;1.50;;;19.90;72.40;;;;;;4996084;28;20439;-92
2023/04/04 01:24:56;;;;;;;1.53;1.07;;;20.00;72.60;;;;;;4996088;28;20798;-85
2023/04/04 01:27:24;;;;;;;1.63;1.10;;;19.90;72.40;;;;;;4995740;28;20568;-86
2023/04/04 01:29:51;;;;;;;1.47;1.00;;;19.90;72.50;;;;;;4995527;28;20518;-85
2023/04/04 01:32:21;;;;;;;1.50;1.20;;;19.90;72.50;;;;;;4995922;28;20440;-85
2023/04/04 01:34:56;;;;;;;1.60;1.10;;;19.90;72.50;;;;;;4995596;28;20443;-86
2023/04/04 01:37:30;;;;;;;1.87;1.30;;;20.00;72.60;;;;;;4995514;28;20490;-92
2023/04/04 01:40:08;;;;;;;1.40;1.30;;;19.90;72.30;;;;;;4992090;28;20488;-88
2023/04/04 01:42:36;;;;;;;1.40;1.30;;;19.90;72.30;;;;;;4976110;28;20452;-91
2023/04/04 01:45:05;;;;;;;1.60;1.40;;;19.90;72.30;;;;;;4975041;28;20937;-91
2023/04/04 01:47:38;;;;;;;1.70;1.30;;;19.90;72.30;;;;;;4976171;28;20492;-85
2023/04/04 01:50:06;;;;;;;1.60;1.30;;;20.10;72.70;;;;;;4975979;28;20449;-92
2023/04/04 01:52:33;;;;;;;1.60;1.30;;;19.90;72.40;;;;;;4975791;28;20526;-92
2023/04/04 01:55:00;;;;;;;2.40;1.10;;;19.80;72.30;;;;;;4975934;28;20452;-89
2023/04/04 01:57:27;;;;;;;2.07;1.30;;;19.80;72.30;;;;;;4975942;28;20471;-93
2023/04/04 01:59:55;;;;;;;1.93;1.30;;;19.90;72.40;;;;;;4975647;28;20843;-85
2023/04/04 02:02:22;;;;;;;1.30;1.10;;;19.90;72.30;;;;;;4975788;28;20452;-85
2023/04/04 02:04:49;;;;;;;1.67;1.40;;;19.90;72.40;;;;;;4976163;28;20441;-86
2023/04/04 02:07:15;;;;;;;1.47;1.20;;;19.80;72.40;;;;;;4975691;28;20495;-86
2023/04/04 02:09:42;;;;;;;1.30;1.10;;;19.80;72.30;;;;;;4975683;28;20451;-84
2023/04/04 02:12:09;;;;;;;1.30;1.10;;;19.90;72.70;;;;;;4975896;28;20454;-84
2023/04/04 02:14:36;;;;;;;1.50;1.27;;;19.80;72.40;;;;;;4975974;28;20807;-83
2023/04/04 02:17:04;;;;;;;1.40;1.17;;;19.80;72.40;;;;;;4975316;28;20450;-83
2023/04/04 02:19:32;;;;;;;1.30;1.10;;;19.80;72.30;;;;;;4975693;28;20950;-87
2023/04/04 02:21:59;;;;;;;1.63;1.33;;;19.80;72.20;;;;;;4975545;28;20457;-85
2023/04/04 02:24:26;;;;;;;1.90;1.50;;;19.80;72.30;;;;;;4975627;28;20449;-84
2023/04/04 02:26:53;;;;;;;1.70;1.40;;;19.80;72.30;;;;;;4975365;28;20843;-87
2023/04/04 02:29:20;;;;;;;1.30;1.10;;;19.80;72.40;;;;;;4975261;28;20540;-84
2023/04/04 02:31:47;;;;;;;1.20;1.07;;;19.80;72.40;;;;;;4975261;28;20453;-83
2023/04/04 02:34:15;;;;;;;2.53;1.60;;;19.80;72.40;;;;;;4975078;28;20933;-84
2023/04/04 02:36:41;;;;;;;1.73;1.40;;;19.80;72.30;;;;;;4975219;28;20437;-84
2023/04/04 02:39:08;;;;;;;1.57;1.30;;;19.80;72.30;;;;;;4975011;28;20943;-83
2023/04/04 02:41:35;;;;;;;1.60;1.27;;;19.80;72.30;;;;;;4975103;28;20826;-83
2023/04/04 02:44:02;;;;;;;1.50;1.40;;;19.80;72.20;;;;;;4974997;28;20445;-84
2023/04/04 02:46:28;;;;;;;1.50;1.30;;;19.70;72.20;;;;;;4974887;28;20488;-92
2023/04/04 02:48:56;;;;;;;1.50;1.23;;;19.80;72.40;;;;;;4974611;28;20456;-88
2023/04/04 02:51:24;;;;;;;1.50;1.40;;;19.70;72.10;;;;;;4975211;28;20548;-84
2023/04/04 02:53:51;;;;;;;1.30;1.20;;;19.70;72.10;;;;;;4975175;28;20443;-84
2023/04/04 02:56:17;;;;;;;1.60;1.20;;;19.80;72.20;;;;;;4974581;28;20559;-86
2023/04/04 02:58:44;;;;;;;1.63;1.40;;;19.80;72.10;;;;;;4974826;28;20482;-84
2023/04/04 03:01:11;;;;;;;1.20;1.10;;;19.70;71.90;;;;;;4974924;28;20495;-91
2023/04/04 03:03:38;;;;;;;1.40;1.10;;;19.70;71.90;;;;;;4975112;28;20452;-88
2023/04/04 03:06:05;;;;;;;1.40;1.30;;;19.70;71.90;;;;;;4974601;28;20444;-91
2023/04/04 03:08:34;;;;;;;1.90;1.30;;;19.70;71.90;;;;;;4975000;28;20445;-91
2023/04/04 03:11:01;;;;;;;1.37;1.20;;;19.70;72.00;;;;;;4974900;28;20449;-83
2023/04/04 03:13:28;;;;;;;1.70;1.23;;;19.70;71.90;;;;;;4974812;28;20445;-86
2023/04/04 03:16:01;;;;;;;1.20;1.00;;;19.70;71.80;;;;;;4974735;28;20460;-84
2023/04/04 03:18:28;;;;;;;1.70;1.10;;;19.70;71.90;;;;;;4974960;28;20544;-91
2023/04/04 03:20:55;;;;;;;1.27;1.13;;;19.80;72.00;;;;;;4974385;28;20970;-89
2023/04/04 03:23:21;;;;;;;1.43;1.30;;;19.70;71.90;;;;;;4975003;28;20444;-91
2023/04/04 03:25:50;;;;;;;1.40;1.20;;;19.60;72.00;;;;;;4975193;28;20455;-83
2023/04/04 03:28:16;;;;;;;1.83;1.30;;;19.70;71.90;;;;;;4974548;28;20498;-84
2023/04/04 03:30:43;;;;;;;1.60;1.20;;;19.70;71.90;;;;;;4974493;28;20445;-91
2023/04/04 03:33:10;;;;;;;1.73;1.53;;;19.60;71.80;;;;;;4974434;28;20922;-87
2023/04/04 03:35:38;;;;;;;1.50;1.40;;;19.60;71.80;;;;;;4974377;28;20445;-88
2023/04/04 03:38:05;;;;;;;1.27;1.10;;;19.60;71.80;;;;;;4974596;28;20455;-91
2023/04/04 03:40:32;;;;;;;2.13;1.47;;;19.60;71.90;;;;;;4974828;28;20453;-88
2023/04/04 03:43:01;;;;;;;2.60;1.50;;;19.60;71.80;;;;;;4988533;28;20536;-91
2023/04/04 03:45:28;;;;;;;1.20;1.10;;;19.60;71.90;;;;;;4993846;28;20477;-91
2023/04/04 03:47:55;;;;;;;1.27;1.10;;;19.60;72.00;;;;;;4993787;28;21050;-91
2023/04/04 03:50:22;;;;;;;1.43;1.27;;;19.60;71.90;;;;;;4993862;28;20527;-91
2023/04/04 03:52:49;;;;;;;1.50;1.37;;;19.60;72.70;;;;;;4983784;28;20441;-91
2023/04/04 03:55:17;;;;;;;1.87;1.27;;;19.60;71.90;;;;;;4981259;28;20997;-89
2023/04/04 03:57:43;;;;;;;1.63;1.50;;;19.60;71.70;;;;;;4983108;28;20465;-92
2023/04/04 04:00:12;;;;;;;1.50;1.40;;;19.60;71.70;;;;;;4976724;28;20856;-91
2023/04/04 04:02:39;;;;;;;1.33;1.23;;;19.60;71.70;;;;;;4974603;28;20456;-89
2023/04/04 04:05:07;;;;;;;1.10;0.90;;;19.60;71.70;;;;;;4974050;28;20490;-91
2023/04/04 04:07:34;;;;;;;1.47;1.37;;;19.60;71.70;;;;;;4975705;28;20488;-91
2023/04/04 04:10:02;;;;;;;1.27;1.17;;;19.60;71.90;;;;;;4977843;28;20866;-92
2023/04/04 04:12:28;;;;;;;1.63;1.10;;;19.60;71.90;;;;;;4978018;28;20452;-88
2023/04/04 04:14:55;;;;;;;1.30;1.17;;;19.60;71.70;;;;;;4977858;28;20448;-93
2023/04/04 04:17:23;;;;;;;1.63;1.50;;;19.60;71.50;;;;;;4977763;28;20543;-84
2023/04/04 04:19:50;;;;;;;1.40;1.27;;;19.60;71.60;;;;;;4978112;28;20921;-84
2023/04/04 04:22:17;;;;;;;1.30;1.10;;;19.50;71.60;;;;;;4978230;28;20441;-84
2023/04/04 04:24:43;;;;;;;1.30;1.20;;;19.60;71.60;;;;;;4977715;28;20924;-84
2023/04/04 04:27:10;;;;;;;1.27;1.17;;;19.50;71.60;;;;;;4977759;28;20487;-92
2023/04/04 04:29:37;;;;;;;1.20;1.10;;;19.50;71.70;;;;;;4977874;28;20443;-84
2023/04/04 04:32:04;;;;;;;1.90;1.40;;;19.50;71.70;;;;;;4977641;28;20802;-84
2023/04/04 04:34:32;;;;;;;2.33;1.10;;;19.50;71.80;;;;;;4978250;28;20443;-86
2023/04/04 04:36:59;;;;;;;1.40;1.30;;;19.50;71.70;;;;;;4977453;28;20451;-93
2023/04/04 04:39:26;;;;;;;1.30;1.13;;;19.60;71.70;;;;;;4977506;28;20444;-89
2023/04/04 04:41:52;;;;;;;1.60;1.10;;;19.60;71.60;;;;;;4977894;28;20445;-93
2023/04/04 04:44:19;;;;;;;1.63;1.53;;;19.60;71.40;;;;;;4977726;28;20440;-87
2023/04/04 04:46:46;;;;;;;1.73;1.10;;;19.70;71.90;;;;;;4977386;28;20998;-85
2023/04/04 04:49:13;;;;;;;1.77;1.33;;;19.60;71.80;;;;;;4977375;28;20437;-85
2023/04/04 04:51:41;;;;;;;2.80;1.53;;;19.60;72.00;;;;;;4977313;28;20452;-90
2023/04/04 04:54:09;;;;;;;2.93;1.27;;;19.60;72.00;;;;;;4977033;28;20943;-85
2023/04/04 04:56:36;;;;;;;1.47;1.37;;;19.60;73.00;;;;;;4976936;28;20497;-86
2023/04/04 04:59:05;;;;;;;2.03;1.40;;;19.70;72.20;;;;;;4976985;28;20472;-93
2023/04/04 05:01:32;;;;;;;1.53;1.37;;;19.60;72.10;;;;;;4976992;28;20812;-88
2023/04/04 05:03:59;;;;;;;2.70;1.30;;;19.60;72.10;;;;;;4976798;28;20444;-91
2023/04/04 05:06:26;;;;;;;2.07;1.50;;;19.60;72.20;;;;;;4976823;28;20456;-92
2023/04/04 05:08:54;;;;;;;1.30;1.20;;;19.60;72.30;;;;;;4976817;28;20524;-85
2023/04/04 05:11:21;;;;;;;1.40;1.20;;;19.60;72.30;;;;;;4977137;28;20536;-85
2023/04/04 05:13:47;;;;;;;1.60;1.40;;;19.60;72.20;;;;;;4976968;28;20444;-86
2023/04/04 05:16:14;;;;;;;2.60;1.90;;;19.60;72.40;;;;;;4977040;28;20452;-89
2023/04/04 05:18:41;;;;;;;3.23;1.70;;;19.60;72.30;;;;;;4976825;28;20455;-86
2023/04/04 05:21:08;;;;;;;3.00;1.83;;;19.60;72.50;;;;;;4976763;28;20449;-85
2023/04/04 05:23:35;;;;;;;2.03;1.40;;;19.60;72.40;;;;;;4976859;28;20441;-85
2023/04/04 05:26:03;;;;;;;2.27;1.70;;;19.60;72.30;;;;;;4976707;28;20449;-86
2023/04/04 05:28:30;;;;;;;1.97;1.80;;;19.60;72.40;;;;;;4976346;28;20489;-93
2023/04/04 05:33:40;;;;;;;6.57;1.90;;;19.50;72.30;;;;;;4967669;28;20476;-86
2023/04/04 05:36:07;;;;;;;3.00;1.70;;;19.50;71.70;;;;;;4976226;28;20936;-86
2023/04/04 05:38:36;;;;;;;2.10;1.90;;;19.50;72.30;;;;;;4976317;28;20451;-93
2023/04/04 07:48:05;;;;;;;3.47;1.47;;;19.60;72.30;;;;;;5298932;23;20502;-92
2023/04/04 07:53:01;;;;;;;1.93;1.73;;;19.70;72.40;;;;;;5110634;23;20578;-96
2023/04/04 07:55:31;;;;;;;2.00;1.80;;;19.70;72.30;;;;;;5000341;28;20487;-96
2023/04/04 07:58:15;;;;;;;2.60;1.30;;;19.70;72.20;;;;;;4999433;28;20495;-95
2023/04/04 08:00:43;;;;;;;2.17;1.73;;;19.90;72.30;;;;;;4997958;28;20478;-91
2023/04/04 08:03:12;;;;;;;2.13;1.67;;;19.80;72.40;;;;;;4997705;28;20539;-91
2023/04/04 08:05:38;;;;;;;2.93;1.60;;;19.80;72.40;;;;;;4997240;28;20448;-86
2023/04/04 08:08:05;;;;;;;2.70;1.70;;;19.80;72.50;;;;;;4997401;28;20490;-90
2023/04/04 08:10:33;;;;;;;1.80;1.50;;;19.90;72.60;;;;;;4997281;28;20522;-85
2023/04/04 08:12:59;;;;;;;2.60;1.67;;;19.90;72.40;;;;;;4996720;28;20443;-91
2023/04/04 08:15:26;;;;;;;1.93;1.73;;;19.90;72.50;;;;;;4996589;28;20470;-85
2023/04/04 08:17:54;;;;;;;2.97;1.77;;;19.90;72.70;;;;;;4997235;28;20447;-90
2023/04/04 08:20:22;;;;;;;2.00;1.80;;;19.90;72.70;;;;;;4997136;28;20444;-85
2023/04/04 08:22:49;;;;;;;1.83;1.73;;;20.00;73.10;;;;;;4997093;28;20438;-84
2023/04/04 08:25:17;;;;;;;1.77;1.50;;;20.00;72.90;;;;;;4996924;28;20531;-90
2023/04/04 08:27:44;;;;;;;2.53;1.73;;;20.00;72.80;;;;;;4995967;28;20491;-85
2023/04/04 08:30:13;;;;;;;2.00;1.43;;;20.10;73.10;;;;;;4996170;28;20535;-86
2023/04/04 08:32:39;;;;;;;1.50;1.40;;;20.10;72.90;;;;;;4996000;28;20795;-90
2023/04/04 08:35:07;;;;;;;2.07;1.90;;;20.10;73.00;;;;;;4996167;28;20523;-84
2023/04/04 08:37:35;;;;;;;1.70;1.20;;;20.20;72.90;;;;;;4996690;28;20506;-90
2023/04/04 08:40:02;;;;;;;1.60;1.40;;;20.20;73.10;;;;;;4996274;28;20535;-84
2023/04/04 08:42:32;;;;;;;2.47;1.83;;;20.30;72.90;;;;;;4996486;28;20452;-85
2023/04/04 08:45:02;;;;;;;2.23;1.30;;;20.30;73.00;;;;;;4996291;28;20448;-85
2023/04/04 08:47:31;;;;;;;2.47;1.43;;;20.30;73.00;;;;;;4996849;28;20873;-90
2023/04/04 08:50:00;;;;;;;1.90;1.60;;;20.40;73.10;;;;;;4996847;28;20446;-85
2023/04/04 08:52:28;;;;;;;2.90;1.77;;;20.40;73.10;;;;;;4996170;28;20484;-89
2023/04/04 08:54:57;;;;;;;1.40;1.30;;;20.40;73.00;;;;;;4996531;28;20444;-84
2023/04/04 08:57:24;;;;;;;1.70;1.60;;;20.50;73.10;;;;;;4996600;28;20559;-91
2023/04/04 08:59:51;;;;;;;2.60;1.30;;;20.50;73.90;;;;;;4996553;28;20881;-84
2023/04/04 09:02:24;;;;;;;1.93;1.50;;;20.50;73.00;;;;;;4996941;28;20762;-91
2023/04/04 09:04:53;;;;;;;2.10;1.53;;;20.60;73.10;;;;;;4996517;28;20486;-90
2023/04/04 09:07:20;;;;;;;1.20;1.10;;;20.60;73.00;;;;;;4996350;28;20440;-90
2023/04/04 09:09:49;;;;;;;1.50;1.20;;;20.70;73.10;;;;;;4996512;28;20444;-92
2023/04/04 09:12:18;;;;;;;2.67;2.17;;;20.70;73.20;;;;;;4996333;28;20444;-91
2023/04/04 09:14:47;;;;;;;2.43;1.30;;;20.70;73.00;;;;;;4996308;28;20499;-86
2023/04/04 09:17:14;;;;;;;1.80;1.40;;;20.80;73.10;;;;;;4996228;28;20795;-84
2023/04/04 09:19:41;;;;;;;3.13;1.77;;;20.80;73.30;;;;;;4996116;28;20458;-85
2023/04/04 09:22:08;;;;;;;1.60;1.50;;;20.80;73.10;;;;;;4996156;28;20483;-84
2023/04/04 09:24:42;;;;;;;1.60;1.30;;;20.80;73.20;;;;;;4996029;28;20495;-91
2023/04/04 09:27:10;;;;;;;1.30;1.10;;;20.90;73.20;;;;;;4995830;28;20466;-84
2023/04/04 09:29:40;;;;;;;1.43;1.30;;;20.90;73.00;;;;;;4996251;28;20991;-92
2023/04/04 09:32:08;;;;;;;1.40;1.20;;;21.00;73.10;;;;;;4995871;28;20451;-85
2023/04/04 09:34:36;;;;;;;1.23;1.07;;;21.00;73.20;;;;;;4995903;28;20436;-85
2023/04/04 09:37:04;;;;;;;2.03;1.70;;;21.10;73.00;;;;;;4995803;28;20451;-92
2023/04/04 09:39:31;;;;;;;1.53;1.43;;;21.10;73.10;;;;;;4995734;28;20448;-89
2023/04/04 09:41:59;;;;;;;2.50;1.17;;;21.30;74.10;;;;;;4996039;28;20552;-91
2023/04/04 09:44:28;;;;;;;1.20;1.00;;;21.10;73.00;;;;;;4995748;28;20451;-84
2023/04/04 09:47:06;;;;;;;1.97;1.37;;;21.20;73.10;;;;;;4995553;28;20864;-84
2023/04/04 09:49:33;;;;;;;2.47;1.60;;;21.30;73.20;;;;;;4995385;28;20510;-85
2023/04/04 09:52:00;;;;;;;1.50;1.40;;;21.30;73.20;;;;;;4995463;28;20987;-92
2023/04/04 09:54:26;;;;;;;1.63;1.30;;;21.30;73.20;;;;;;4995336;28;20440;-84
2023/04/04 09:56:53;;;;;;;1.47;1.13;;;21.40;73.00;;;;;;4995585;28;20464;-84
2023/04/04 09:59:20;;;;;;;1.90;1.20;;;21.40;72.80;;;;;;4995436;28;20436;-91
2023/04/04 10:01:50;;;;;;;3.10;1.50;;;21.40;72.60;;;;;;4995449;28;20444;-84
2023/04/04 10:04:18;;;;;;;1.20;1.10;;;21.50;72.60;;;;;;4994562;28;20941;-84
2023/04/04 10:06:46;;;;;;;3.10;1.97;;;21.50;72.90;;;;;;4994657;28;20448;-88
2023/04/04 10:09:12;;;;;;;1.50;1.40;;;21.50;73.10;;;;;;4995083;28;20491;-85
2023/04/04 10:11:39;;;;;;;3.00;1.37;;;21.50;73.10;;;;;;4995254;28;20519;-84
2023/04/04 10:14:06;;;;;;;1.50;1.20;;;21.60;72.80;;;;;;4995008;28;20539;-84
2023/04/04 10:16:36;;;;;;;1.60;1.47;;;21.60;73.00;;;;;;4994882;28;20451;-91
2023/04/04 10:19:04;;;;;;;3.10;1.40;;;21.60;73.10;;;;;;4995071;28;20459;-92
2023/04/04 10:21:33;;;;;;;1.70;1.60;;;21.60;73.10;;;;;;4994937;28;20482;-91
2023/04/04 10:24:07;;;;;;;2.37;1.53;;;21.70;73.00;;;;;;4995134;28;20455;-91
2023/04/04 10:26:34;;;;;;;2.37;1.40;;;21.80;73.10;;;;;;4994660;28;20894;-91
2023/04/04 10:29:02;;;;;;;1.30;1.20;;;21.90;73.00;;;;;;4994637;28;20500;-84
2023/04/04 10:31:31;;;;;;;1.77;1.27;;;21.90;73.00;;;;;;4994659;28;20444;-84
2023/04/04 10:34:07;;;;;;;3.63;1.40;;;21.90;73.10;;;;;;4994571;28;20455;-91
2023/04/04 10:36:46;;;;;;;1.70;1.50;;;22.00;73.20;;;;;;5109948;27;1246573;-91
2023/04/04 10:39:15;;;;;;;1.30;1.00;;;22.00;73.30;;;;;;5131989;28;20192;-84
2023/04/04 10:41:42;;;;;;;1.37;1.00;;;22.10;73.40;;;;;;5131773;28;20430;-88
2023/04/04 10:44:18;;;;;;;3.07;1.30;;;22.00;73.30;;;;;;5131854;28;20433;-83
2023/04/04 10:46:49;;;;;;;2.07;1.10;;;22.10;73.30;;;;;;5131524;28;20433;-83
2023/04/04 10:49:16;;;;;;;2.20;1.17;;;22.10;73.30;;;;;;5131636;28;21034;-84
2023/04/04 10:51:44;;;;;;;2.07;1.50;;;22.10;73.30;;;;;;5131463;28;20434;-91
2023/04/04 10:54:12;;;;;;;1.50;1.00;;;22.20;73.30;;;;;;5131453;28;20437;-83
2023/04/04 10:56:39;;;;;;;2.03;1.30;;;22.20;73.50;;;;;;5118878;28;20974;-83
2023/04/04 10:59:13;;;;;;;1.60;1.20;;;22.20;73.40;;;;;;5110966;28;20933;-83
2023/04/04 11:01:50;;;;;;;1.90;1.30;;;22.30;73.80;;;;;;5110808;28;20442;-84
2023/04/04 11:04:19;;;;;;;1.30;1.10;;;22.30;73.70;;;;;;5110866;28;20453;-91
2023/04/04 11:07:07;;;;;;;2.03;1.03;;;22.30;73.70;;;;;;5110735;28;20431;-83
2023/04/04 11:09:48;;;;;;;1.80;1.20;;;22.40;73.80;;;;;;5110788;28;20431;-91
2023/04/04 11:12:19;;;;;;;2.70;1.03;;;22.40;73.70;;;;;;5110861;28;20438;-84
2023/04/04 11:14:55;;;;;;;1.33;1.03;;;22.40;73.60;;;;;;5110593;28;20474;-87
2023/04/04 11:17:44;;;;;;;1.60;1.10;;;22.40;73.80;;;;;;5110858;28;20799;-85
2023/04/04 11:20:14;;;;;;;1.70;0.90;;;22.50;73.70;;;;;;5110941;28;20435;-81
2023/04/04 11:22:44;;;;;;;1.63;1.40;;;22.50;73.90;;;;;;5110838;28;20431;-92
2023/04/04 11:25:30;;;;;;;1.83;1.10;;;22.50;73.90;;;;;;5110363;28;20478;-91
2023/04/04 11:27:58;;;;;;;1.57;1.20;;;22.50;74.20;;;;;;5110222;28;20442;-91
2023/04/04 11:30:25;;;;;;;2.07;1.10;;;22.50;74.20;;;;;;5110503;28;20756;-82
2023/04/04 11:32:52;;;;;;;1.50;1.00;;;22.50;74.30;;;;;;5110241;28;20497;-83
2023/04/04 11:35:19;;;;;;;2.30;1.17;;;22.50;74.40;;;;;;5109864;28;20488;-83
2023/04/04 11:38:03;;;;;;;1.20;1.00;;;22.50;74.50;;;;;;5110287;28;20450;-83
2023/04/04 11:40:40;;;;;;;1.30;1.07;;;22.50;74.40;;;;;;5110387;28;20443;-90
2023/04/04 11:43:11;;;;;;;1.60;1.10;;;22.50;75.30;;;;;;5110123;28;20438;-83
2023/04/04 11:45:43;;;;;;;1.70;1.23;;;22.60;74.30;;;;;;5109947;28;20443;-83
2023/04/04 11:48:11;;;;;;;2.10;1.20;;;22.60;74.30;;;;;;5095822;28;20446;-83
2023/04/04 11:50:39;;;;;;;1.30;1.10;;;22.60;74.50;;;;;;5096112;28;20797;-83
2023/04/04 11:53:10;;;;;;;2.07;1.50;;;22.60;74.40;;;;;;5095653;28;20447;-83
2023/04/04 11:55:41;;;;;;;2.53;1.67;;;22.50;66.60;;;;;;5096040;28;20484;-83
2023/04/04 11:58:13;;;;;;;2.20;1.40;;;22.40;64.20;;;;;;5096330;28;20446;-83
2023/04/04 12:00:40;;;;;;;1.57;1.30;;;22.30;71.20;;;;;;5096253;28;20441;-83
2023/04/04 12:03:09;;;;;;;3.20;1.40;;;22.30;71.50;;;;;;5096137;28;20492;-83
2023/04/04 12:05:37;;;;;;;2.33;1.27;;;22.30;71.60;;;;;;5096046;28;20824;-83
2023/04/04 12:08:04;;;;;;;2.30;1.13;;;22.30;71.70;;;;;;5095304;28;20450;-84
2023/04/04 12:10:35;;;;;;;1.83;1.20;;;22.40;72.00;;;;;;5094425;28;20505;-82
2023/04/04 12:13:03;;;;;;;3.43;1.50;;;22.40;72.00;;;;;;5095229;28;20444;-83
2023/04/04 12:15:32;;;;;;;1.77;1.50;;;22.50;72.20;;;;;;5094712;28;20484;-92
2023/04/04 12:17:59;;;;;;;1.57;1.33;;;22.50;73.10;;;;;;5095036;28;20500;-92
2023/04/04 12:20:26;;;;;;;1.97;1.30;;;22.70;72.40;;;;;;5095074;28;20501;-92
2023/04/04 12:22:52;;;;;;;1.27;1.10;;;22.50;72.50;;;;;;5095104;28;20439;-82
2023/04/04 12:25:22;;;;;;;2.73;1.40;;;22.50;72.30;;;;;;5095859;28;20448;-82
2023/04/04 12:27:51;;;;;;;3.50;1.40;;;22.60;72.70;;;;;;5095782;28;20440;-92
2023/04/04 12:30:19;;;;;;;3.33;1.10;;;22.50;72.50;;;;;;5095677;28;20463;-91
2023/04/04 12:32:48;;;;;;;2.27;1.20;;;22.50;72.60;;;;;;5095792;28;20435;-91
2023/04/04 12:35:15;;;;;;;1.60;1.30;;;22.60;72.90;;;;;;5095222;28;20556;-83
2023/04/04 12:37:58;;;;;;;5.57;1.53;;;22.60;73.20;;;;;;5095560;28;20440;-83
2023/04/04 12:40:30;;;;;;;2.47;1.30;;;22.60;73.60;;;;;;5095224;28;20450;-90
2023/04/04 12:42:59;;;;;;;4.40;1.17;;;22.60;73.30;;;;;;5095550;28;20437;-83
2023/04/04 12:45:27;;;;;;;2.07;1.43;;;22.60;73.40;;;;;;5095264;28;20454;-85
2023/04/04 12:47:54;;;;;;;1.50;1.27;;;22.60;73.40;;;;;;5095263;28;20435;-83
2023/04/04 12:50:25;;;;;;;1.60;1.20;;;22.60;73.50;;;;;;5095231;28;20793;-83
2023/04/04 12:52:53;;;;;;;1.43;1.13;;;22.60;73.50;;;;;;5095191;28;20534;-92
2023/04/04 12:55:22;;;;;;;2.97;1.57;;;22.60;73.60;;;;;;5094805;28;20468;-83
2023/04/04 12:57:50;;;;;;;2.13;1.33;;;22.60;73.60;;;;;;5094652;28;20448;-91
2023/04/04 13:00:20;;;;;;;2.20;1.20;;;22.70;73.70;;;;;;5094731;28;20443;-92
2023/04/04 13:02:50;;;;;;;2.13;1.10;;;22.60;73.50;;;;;;5094979;28;20447;-82
2023/04/04 13:05:20;;;;;;;3.17;1.20;;;22.60;73.60;;;;;;5095031;28;20435;-82
2023/04/04 13:07:47;;;;;;;1.83;1.30;;;22.60;73.60;;;;;;5094954;28;20942;-83
2023/04/04 13:10:16;;;;;;;1.70;1.30;;;22.60;73.60;;;;;;5094872;28;20443;-82
2023/04/04 13:12:57;;;;;;;1.80;1.10;;;22.60;74.60;;;;;;5094531;28;20919;-93
2023/04/04 13:15:48;;;;;;;1.30;1.17;;;22.60;73.80;;;;;;5094618;28;20468;-92
2023/04/04 13:18:16;;;;;;;2.53;1.30;;;22.60;73.90;;;;;;5094728;28;20444;-82
2023/04/04 13:20:43;;;;;;;2.43;1.20;;;22.60;73.90;;;;;;5094752;28;20919;-83
2023/04/04 13:23:10;;;;;;;2.07;1.10;;;22.60;73.90;;;;;;5094636;28;20458;-92
2023/04/04 13:25:37;;;;;;;1.57;1.23;;;22.60;73.90;;;;;;5094429;28;20978;-91
2023/04/04 13:28:04;;;;;;;1.70;1.40;;;22.60;74.10;;;;;;5094426;28;20440;-83
2023/04/04 13:30:33;;;;;;;1.30;1.10;;;22.60;73.90;;;;;;5094531;28;20431;-92
2023/04/04 13:32:59;;;;;;;1.33;1.23;;;22.60;74.00;;;;;;5094680;28;20789;-91
2023/04/04 13:35:26;;;;;;;1.80;1.03;;;22.60;74.10;;;;;;5094215;28;20474;-82
2023/04/04 13:37:53;;;;;;;2.27;1.20;;;22.60;73.90;;;;;;5094204;28;20440;-90
2023/04/04 13:40:20;;;;;;;1.30;1.20;;;22.60;73.90;;;;;;5094352;28;20439;-92
2023/04/04 13:42:47;;;;;;;1.60;1.13;;;22.60;73.90;;;;;;5094749;28;20448;-83
2023/04/04 13:45:14;;;;;;;1.27;0.97;;;22.60;74.00;;;;;;5094286;28;20447;-82
2023/04/04 13:47:43;;;;;;;1.40;0.90;;;22.60;74.10;;;;;;5093952;28;20447;-83
2023/04/04 13:50:10;;;;;;;2.73;1.10;;;22.60;73.90;;;;;;5093084;28;20444;-82
2023/04/04 13:52:37;;;;;;;1.50;1.00;;;22.60;73.80;;;;;;5093049;28;20494;-84
2023/04/04 13:55:04;;;;;;;5.13;1.00;;;22.60;73.80;;;;;;5093334;28;20958;-83
2023/04/04 13:57:32;;;;;;;2.60;1.10;;;22.60;73.70;;;;;;5093581;28;20844;-86
2023/04/04 13:59:59;;;;;;;1.40;1.10;;;22.50;73.40;;;;;;5093540;28;20472;-83
2023/04/04 14:02:26;;;;;;;1.20;0.90;;;22.50;73.50;;;;;;5093615;28;20440;-83
2023/04/04 14:04:54;;;;;;;1.40;1.30;;;22.50;73.60;;;;;;5092852;28;20453;-83
2023/04/04 14:07:22;;;;;;;1.10;1.00;;;22.50;73.30;;;;;;5092674;28;20446;-83
2023/04/04 14:09:49;;;;;;;1.63;1.07;;;22.50;73.30;;;;;;5092324;28;20478;-84
2023/04/04 14:12:16;;;;;;;1.73;1.17;;;22.50;73.30;;;;;;5092589;28;21007;-86
2023/04/04 14:14:43;;;;;;;1.50;1.10;;;22.50;73.40;;;;;;5091920;28;20439;-83
2023/04/04 14:17:10;;;;;;;1.97;1.17;;;22.50;73.40;;;;;;5092419;28;20487;-82
2023/04/04 14:19:38;;;;;;;2.10;1.30;;;22.40;73.50;;;;;;5092850;28;21014;-83
2023/04/04 14:22:06;;;;;;;3.37;1.40;;;22.40;73.30;;;;;;5093643;28;20957;-83
2023/04/04 14:24:33;;;;;;;1.50;1.00;;;22.40;73.10;;;;;;5093494;28;20463;-89
2023/04/04 14:27:00;;;;;;;1.10;1.00;;;22.40;73.10;;;;;;5093589;28;20463;-91
2023/04/04 14:29:28;;;;;;;1.30;1.17;;;22.40;73.00;;;;;;5093470;28;20430;-85
2023/04/04 14:31:55;;;;;;;1.97;1.20;;;22.50;73.10;;;;;;5093556;28;20530;-84
2023/04/04 14:34:25;;;;;;;2.20;1.23;;;22.40;73.10;;;;;;5093950;28;20444;-83
2023/04/04 14:36:52;;;;;;;1.50;1.20;;;22.40;72.90;;;;;;5093029;28;20491;-84
2023/04/04 14:39:20;;;;;;;1.80;1.30;;;22.50;73.10;;;;;;5093553;28;20526;-88
2023/04/04 14:41:47;;;;;;;2.17;1.17;;;22.40;73.00;;;;;;5093358;28;20501;-83
2023/04/04 14:44:14;;;;;;;1.13;0.97;;;22.40;73.10;;;;;;5093449;28;20443;-83
2023/04/04 14:46:40;;;;;;;1.23;0.83;;;22.40;72.90;;;;;;5093299;28;20441;-85
2023/04/04 14:49:07;;;;;;;1.30;1.20;;;22.40;72.70;;;;;;5093344;28;20930;-83
2023/04/04 14:51:34;;;;;;;1.87;1.00;;;22.40;72.70;;;;;;5093213;28;20440;-88
2023/04/04 14:54:01;;;;;;;1.40;1.10;;;22.40;72.70;;;;;;5093250;28;20448;-86
2023/04/04 14:56:29;;;;;;;1.30;1.03;;;22.50;72.60;;;;;;5092877;28;20482;-89
2023/04/04 14:58:58;;;;;;;2.00;1.20;;;22.50;72.40;;;;;;5093447;28;20437;-89
2023/04/04 15:01:26;;;;;;;4.57;1.10;;;22.50;72.30;;;;;;5093213;28;20489;-89
2023/04/04 15:03:54;;;;;;;1.20;1.00;;;22.50;72.30;;;;;;5093648;28;20447;-90
2023/04/04 15:06:21;;;;;;;2.53;1.20;;;22.50;72.30;;;;;;5093233;28;20435;-88